Terminal Aerodrome Forecast
Issued by NWS Caribou, ME

Current Version | Previous Version | Text Only | Print | Product List | Glossary On
Versions: 1 2 3 4 5 6 7 8 9 10 11 12 13 14 15 16 17 18 19 20 21
000 FTUS41 KCAR 301120 TAFBGR TAF KBGR 301120Z 3012/3112 28007KT P6SM FEW050 FM301400 30010KT P6SM SCT030 BKN050 FM302100 32005KT P6SM SCT050=

USA.gov is the U.S. government's official web portal to all federal, state and local government web resources and services.